Weather reports worldwide

Advertisment
Elgoibar, Spain (8036): temperature & dewpoint: 12.01.2020 12:00:00 - 18.01.2020 12:00:00 (CET)Elgoibar, Spain (8036): wind speed & gusts: 12.01.2020 12:00:00 - 18.01.2020 12:00:00 (CET)Elgoibar, Spain (8036): wind direction: 12.01.2020 12:00:00 - 18.01.2020 12:00:00 (CET)Elgoibar, Spain (8036): reduced air pressure: 12.01.2020 12:00:00 - 18.01.2020 12:00:00 (CET)Elgoibar, Spain (8036): precipitation: 12.01.2020 12:00:00 - 18.01.2020 12:00:00 (CET)
Date & Time tt [°C] td [°C] ff [km/h] ff [kn] fx [km/h] fx [kn] dd ppp [hPa] rr [mm]
18.01.2020 12:00:00 12,5 1,7 11 6 42 23 W 1022,8 0,0
18.01.2020 11:00:00 9,9 3,4 12 7 27 15 SW 1024,0 0,0
18.01.2020 10:00:00 7,8 3,6 11 6 24 13 SSW 1025,2 0,0
18.01.2020 09:00:00 5,9 3,4 13 7 28 15 SW 1026,2 0,0
18.01.2020 08:00:00 5,2 3,8 6 4 16 9 WSW 1027,2 0,0
18.01.2020 07:00:00 5,5 4,3 4 2 18 10 WSW 1027,8 -
18.01.2020 06:00:00 4,3 3,4 0 0 7 4 NW 1028,7 0,0
18.01.2020 05:00:00 4,1 3,0 2 1 14 8 E 1029,5 0,0
18.01.2020 04:00:00 4,4 3,4 2 1 11 6 E 1030,4 0,0
18.01.2020 03:00:00 4,3 3,2 1 1 11 6 ESE 1031,1 0,0
18.01.2020 02:00:00 4,7 3,6 4 2 13 7 SSW 1031,8 0,0
18.01.2020 01:00:00 5,1 3,8 3 1 11 6 WSW 1032,2 -
18.01.2020 00:00:00 4,8 3,2 0 0 5 3 N 1032,6 0,0
17.01.2020 23:00:00 5,5 3,8 0 0 10 5 N 1033,4 0,0
17.01.2020 22:00:00 5,9 3,9 3 2 8 5 SW 1033,4 0,0
17.01.2020 21:00:00 6,4 4,1 3 2 8 4 SSW 1033,7 0,0
17.01.2020 20:00:00 6,6 3,6 0 0 7 4 N 1033,3 0,0
17.01.2020 19:00:00 8,3 3,6 2 1 20 11 WSW 1033,0 -
17.01.2020 18:00:00 9,2 3,9 10 5 22 12 WSW 1032,2 0,0
17.01.2020 17:00:00 9,9 4,5 10 5 27 15 WSW 1031,4 0,0
17.01.2020 16:00:00 10,2 5,0 6 4 19 11 W 1030,7 0,0
17.01.2020 15:00:00 9,9 5,1 10 6 22 12 SW 1030,3 0,0
17.01.2020 14:00:00 9,9 6,2 7 4 26 14 SSW 1030,2 0,1
17.01.2020 13:00:00 10,1 6,4 4 2 20 11 SW 1030,1 -
17.01.2020 12:00:00 9,2 6,4 3 2 17 9 W 1030,2 0,0
17.01.2020 11:00:00 8,6 6,4 5 3 19 10 SW 1029,2 1,9
17.01.2020 10:00:00 8,8 6,4 5 3 21 11 SW 1028,0 0,1
17.01.2020 09:00:00 8,5 6,1 4 2 26 14 WSW 1027,5 0,9
17.01.2020 08:00:00 8,8 6,2 16 8 32 17 W 1026,2 1,7
17.01.2020 07:00:00 10,4 5,8 5 3 29 16 SSW 1023,9 -
17.01.2020 06:00:00 12,8 3,8 11 6 35 19 S 1022,8 0,0
17.01.2020 05:00:00 12,8 3,8 6 3 29 16 SSE 1022,7 0,0
17.01.2020 04:00:00 13,3 3,4 12 6 33 18 SSE 1022,5 0,0
17.01.2020 03:00:00 14,2 3,6 6 4 45 25 S 1021,7 0,0
17.01.2020 02:00:00 14,4 3,8 19 10 73 40 SSW 1021,2 0,0
17.01.2020 01:00:00 14,5 3,6 27 15 71 38 SSW 1020,0 -
17.01.2020 00:00:00 15,0 4,1 22 12 54 29 SW 1020,1 0,0
16.01.2020 23:00:00 15,3 4,1 6 3 32 18 SSW 1018,9 0,0
16.01.2020 22:00:00 15,4 5,0 11 6 39 21 SW 1019,5 0,0
16.01.2020 21:00:00 15,6 5,5 9 5 42 23 SSW 1018,6 0,0
16.01.2020 20:00:00 15,1 5,3 7 4 29 16 WSW 1018,9 0,0
16.01.2020 19:00:00 15,5 5,6 3 2 26 14 NNW 1018,0 -
16.01.2020 18:00:00 15,8 5,6 1 1 24 13 W 1018,6 0,0
16.01.2020 17:00:00 16,2 5,8 9 5 37 20 W 1018,6 0,0
16.01.2020 16:00:00 16,9 6,1 9 5 40 21 W 1018,0 0,0
16.01.2020 15:00:00 16,8 5,8 10 6 40 22 WSW 1018,7 0,0
16.01.2020 14:00:00 16,9 6,1 13 7 50 27 SW 1019,2 0,0
16.01.2020 13:00:00 16,7 6,2 10 5 31 17 SW 1020,4 -
16.01.2020 12:00:00 15,3 5,5 6 3 39 21 SSW 1021,3 0,0
16.01.2020 11:00:00 15,0 5,5 18 10 46 25 SW 1021,1 0,0
16.01.2020 10:00:00 14,4 5,1 15 8 39 21 WSW 1020,9 0,0
16.01.2020 09:00:00 13,8 4,6 9 5 39 21 S 1021,3 0,0
16.01.2020 08:00:00 13,7 4,8 2 1 23 13 SSE 1021,2 0,0
16.01.2020 07:00:00 14,7 5,5 11 6 40 21 S 1021,0 -
16.01.2020 06:00:00 14,7 5,5 8 5 35 19 SW 1021,1 0,0
16.01.2020 05:00:00 14,7 5,5 8 4 54 29 SW 1021,2 0,0
16.01.2020 04:00:00 14,8 5,6 13 7 52 28 S 1021,3 0,0
16.01.2020 03:00:00 14,2 5,6 11 6 61 33 SSW 1022,0 0,0
16.01.2020 02:00:00 13,9 5,8 10 5 46 25 S 1021,7 0,0
16.01.2020 01:00:00 13,7 5,6 1 1 49 27 SE 1022,4 -
16.01.2020 00:00:00 13,6 5,9 16 9 51 28 S 1022,2 0,0
15.01.2020 23:00:00 13,3 6,4 11 6 37 20 S 1022,8 0,0
15.01.2020 22:00:00 7,5 5,8 2 1 21 11 W 1023,7 0,0
15.01.2020 21:00:00 8,1 6,1 0 0 8 5 NNE 1023,9 0,0
15.01.2020 20:00:00 9,3 6,7 0 0 11 6 SSE 1024,2 0,0
15.01.2020 19:00:00 11,0 7,8 0 0 19 11 NNE 1023,2 -
15.01.2020 18:00:00 12,2 7,3 12 6 24 13 N 1022,2 0,0
15.01.2020 17:00:00 15,2 4,8 4 2 31 17 SSE 1021,1 0,0
15.01.2020 16:00:00 15,2 4,5 11 6 43 23 S 1019,9 0,0
15.01.2020 15:00:00 15,2 4,3 14 8 42 23 S 1019,6 0,0
15.01.2020 14:00:00 15,1 4,1 16 8 44 24 SSW 1018,9 0,0
15.01.2020 13:00:00 14,4 3,6 11 6 39 21 S 1019,5 -
15.01.2020 12:00:00 14,0 3,4 4 2 46 25 SE 1019,5 0,0
15.01.2020 11:00:00 13,7 2,9 11 6 51 27 SE 1018,4 0,0
15.01.2020 10:00:00 13,7 2,7 14 8 55 30 SSW 1016,5 0,0
15.01.2020 09:00:00 13,6 2,5 4 2 50 27 SW 1016,2 0,0
15.01.2020 08:00:00 13,2 2,5 15 8 55 30 S 1015,6 0,0
15.01.2020 07:00:00 12,7 2,9 9 5 38 21 SSW 1015,9 -
15.01.2020 06:00:00 12,9 3,2 5 3 35 19 WNW 1015,3 0,0
15.01.2020 05:00:00 12,9 3,2 14 8 66 35 NE 1014,7 0,0
15.01.2020 04:00:00 12,7 3,0 9 5 69 37 SW 1014,7 0,0
15.01.2020 03:00:00 12,6 2,7 9 5 57 31 WNW 1013,6 0,0
15.01.2020 02:00:00 12,4 2,5 10 6 50 27 W 1015,2 0,0
15.01.2020 01:00:00 12,1 1,9 10 5 40 22 SW 1015,8 -
15.01.2020 00:00:00 12,3 1,9 9 5 50 27 S 1015,7 0,0
14.01.2020 23:00:00 12,8 2,1 15 8 54 29 SSW 1015,1 0,0
14.01.2020 22:00:00 12,8 1,7 8 5 60 33 SSW 1015,2 0,0
14.01.2020 21:00:00 13,3 1,9 8 5 58 31 WSW 1015,0 0,0
14.01.2020 20:00:00 13,5 2,1 9 5 48 26 SSW 1014,1 0,0
14.01.2020 19:00:00 13,4 2,1 10 6 67 36 WSW 1015,1 -
14.01.2020 18:00:00 13,7 2,7 13 7 50 27 SW 1014,3 0,0
14.01.2020 17:00:00 13,7 2,7 12 6 57 31 SSW 1014,4 0,0
14.01.2020 16:00:00 14,1 2,7 15 8 63 34 S 1014,5 0,0
14.01.2020 15:00:00 13,9 2,7 17 9 67 36 S 1014,8 0,0
14.01.2020 14:00:00 13,7 2,9 23 13 72 39 S 1015,2 0,0
14.01.2020 13:00:00 13,3 3,6 22 12 64 34 S 1016,0 -
14.01.2020 12:00:00 - - - - - - - - -
14.01.2020 11:00:00 12,1 3,4 26 14 64 35 S 1016,3 0,0
14.01.2020 10:00:00 10,6 2,5 27 14 67 36 SSE 1016,6 0,0
14.01.2020 09:00:00 10,4 2,3 31 17 61 33 S 1015,7 0,0
14.01.2020 08:00:00 10,2 2,1 28 15 66 35 S 1015,8 0,0
14.01.2020 07:00:00 10,0 1,7 29 16 61 33 S 1015,5 -
14.01.2020 06:00:00 10,2 1,5 29 16 66 36 S 1015,3 0,0
14.01.2020 05:00:00 9,8 0,6 29 15 63 34 S 1015,8 0,0
14.01.2020 04:00:00 10,2 0,4 29 16 69 37 SSE 1016,2 0,0
14.01.2020 03:00:00 10,3 -0,3 27 15 63 34 S 1016,2 0,0
14.01.2020 02:00:00 10,9 -0,3 18 10 60 33 S 1016,0 0,0
14.01.2020 01:00:00 11,2 -0,3 29 16 56 30 S 1016,6 -
14.01.2020 00:00:00 10,7 -1,4 12 7 56 30 S 1017,5 0,0
13.01.2020 23:00:00 10,3 -1,7 11 6 53 29 S 1018,0 0,0
13.01.2020 22:00:00 10,5 -2,2 17 9 53 29 S 1017,6 0,0
13.01.2020 21:00:00 11,4 -2,2 29 16 61 33 S 1016,9 0,0
13.01.2020 20:00:00 11,5 -2,0 16 9 49 27 SSE 1017,4 0,0
13.01.2020 19:00:00 12,0 -2,0 11 6 64 34 SSE 1016,8 -
13.01.2020 18:00:00 12,4 -2,0 16 9 61 33 S 1017,1 0,0
13.01.2020 17:00:00 12,8 -2,0 13 7 54 29 S 1017,3 0,0
13.01.2020 16:00:00 13,0 -1,7 15 8 42 23 SSW 1017,6 0,0
13.01.2020 15:00:00 13,1 -1,0 17 9 44 24 S 1018,2 0,0
13.01.2020 14:00:00 12,0 -1,2 19 11 50 27 S 1019,5 0,0
13.01.2020 13:00:00 11,9 0,4 8 4 36 19 S 1020,8 -
13.01.2020 12:00:00 10,8 3,6 1 1 26 14 NNE 1022,2 0,0
13.01.2020 11:00:00 7,2 3,6 15 8 28 15 SW 1022,6 0,0
13.01.2020 10:00:00 3,1 2,5 2 1 21 11 SSW 1023,4 0,0
13.01.2020 09:00:00 2,3 1,7 13 7 29 16 WSW 1023,3 0,0
13.01.2020 08:00:00 1,4 0,9 2 1 20 11 SSW 1024,2 0,0
13.01.2020 07:00:00 1,6 1,1 7 4 20 11 SSW 1024,4 -
13.01.2020 06:00:00 1,1 0,6 3 2 11 6 S 1025,2 0,0
13.01.2020 05:00:00 1,0 0,2 0 0 10 6 N 1026,0 0,0
13.01.2020 04:00:00 1,9 1,3 2 1 14 8 SSW 1027,0 0,0
13.01.2020 03:00:00 2,4 1,7 7 4 14 7 SSW 1027,6 0,0
13.01.2020 02:00:00 2,2 1,3 4 2 11 6 S 1027,9 0,0
13.01.2020 01:00:00 2,5 1,7 0 0 13 7 N 1029,0 -
13.01.2020 00:00:00 2,7 1,7 3 2 10 5 S 1029,6 0,0
12.01.2020 23:00:00 3,0 1,7 4 2 11 6 SSW 1029,6 0,0
12.01.2020 22:00:00 3,5 2,1 4 2 12 6 SSW 1029,9 0,0
12.01.2020 21:00:00 4,0 2,3 0 0 0 0 N 1030,3 0,0
12.01.2020 20:00:00 4,7 2,5 0 0 0 0 N 1030,7 0,0
12.01.2020 19:00:00 5,9 3,0 0 0 0 0 N 1030,4 -
12.01.2020 18:00:00 7,3 3,0 0 0 0 0 N 1030,2 0,0
12.01.2020 17:00:00 8,4 2,9 0 0 0 0 N 1030,0 0,0
12.01.2020 16:00:00 9,7 3,6 0 0 0 0 N 1030,1 0,0
12.01.2020 15:00:00 9,8 4,8 0 0 0 0 N 1030,3 0,0
12.01.2020 14:00:00 8,7 4,6 0 0 0 0 N 1030,9 0,0
12.01.2020 13:00:00 6,4 5,3 0 0 0 0 N 1032,3 -
12.01.2020 12:00:00 4,0 3,8 0 0 0 0 N 1033,7 0,0

tt = temperature
td = dewpoint
ff = wind speed
fx = gusts
dd = wind direction
ppp = reduced air pressure
rr = precipitation

Next stations